createdAt,value
2022-09-26T00:05:21.477Z,74.3
2022-09-26T00:10:56.472Z,74.4
2022-09-26T00:16:31.993Z,74.6
2022-09-26T00:22:07.993Z,74.6
2022-09-26T00:27:42.838Z,74.8
2022-09-26T00:33:18.838Z,75
2022-09-26T00:38:53.713Z,75.2
2022-09-26T00:44:29.494Z,75.3
2022-09-26T00:50:04.316Z,75.3
2022-09-26T00:55:39.603Z,75.3
2022-09-26T01:01:15.489Z,75.5
2022-09-26T01:06:53.364Z,75.5
2022-09-26T01:12:28.643Z,75.6
2022-09-26T01:18:03.671Z,75.7
2022-09-26T01:23:38.961Z,75.7
2022-09-26T01:29:14.334Z,75.7
2022-09-26T01:34:50.030Z,75.9
2022-09-26T01:40:25.528Z,76
2022-09-26T01:46:01.941Z,75.9
2022-09-26T01:51:38.276Z,75.9
2022-09-26T01:57:13.108Z,76
2022-09-26T02:02:48.318Z,76.2
2022-09-26T02:08:23.972Z,76.3
2022-09-26T02:13:58.995Z,76.4
2022-09-26T02:19:34.883Z,76.6
2022-09-26T02:25:09.869Z,76.7
2022-09-26T02:30:44.878Z,76.7
2022-09-26T02:36:20.122Z,76.8
2022-09-26T02:41:56.335Z,76.8
2022-09-26T02:47:31.378Z,76.8
2022-09-26T02:53:07.370Z,76.7
2022-09-26T02:58:42.314Z,76.6
2022-09-26T03:04:17.519Z,76.6
2022-09-26T03:09:53.232Z,76.6
2022-09-26T03:15:28.441Z,76.5
2022-09-26T03:21:03.214Z,76.6
2022-09-26T03:26:38.072Z,76.8
2022-09-26T03:32:13.699Z,76.7
2022-09-26T03:37:50.188Z,76.7
2022-09-26T03:43:26.002Z,76.9
2022-09-26T03:49:01.188Z,77.1
2022-09-26T03:54:36.286Z,77.3
2022-09-26T04:00:11.459Z,77.4
2022-09-26T04:05:47.337Z,77.6
2022-09-26T04:11:22.506Z,77.7
2022-09-26T04:16:57.973Z,77.8
2022-09-26T04:22:33.418Z,77.9
2022-09-26T04:28:08.503Z,77.8
2022-09-26T04:33:44.359Z,77.9
2022-09-26T04:39:19.150Z,77.8
2022-09-26T04:44:54.280Z,77.8
2022-09-26T04:50:29.376Z,77.8
2022-09-26T04:56:04.417Z,77.8
2022-09-26T05:01:48.546Z,77.8
2022-09-26T05:07:24.641Z,77.7
2022-09-26T05:12:59.684Z,77.7
2022-09-26T05:18:34.404Z,77.7
2022-09-26T05:24:17.588Z,77.8
2022-09-26T05:30:13.462Z,77.7
2022-09-26T05:35:57.210Z,77.7
2022-09-26T05:41:32.283Z,77.7
2022-09-26T05:47:07.642Z,77.7
2022-09-26T05:52:44.281Z,77.7
2022-09-26T05:58:19.624Z,77.8
2022-09-26T06:03:54.806Z,77.8
2022-09-26T06:09:30.212Z,77.9
2022-09-26T06:15:04.880Z,79
2022-09-26T06:20:39.775Z,81.2
2022-09-26T06:26:15.611Z,82.1
2022-09-26T06:31:51.337Z,82.3
2022-09-26T06:37:27.679Z,83.5
2022-09-26T06:43:02.717Z,84.3
2022-09-26T06:48:37.558Z,84.6
2022-09-26T06:54:12.935Z,85.2
2022-09-26T06:59:47.869Z,85.2
2022-09-26T07:05:22.634Z,85.3
2022-09-26T07:11:32.542Z,84.4
2022-09-26T07:17:50.971Z,83.4
2022-09-26T07:23:26.146Z,83
2022-09-26T07:29:01.203Z,82.2
2022-09-26T07:34:36.199Z,81.2
2022-09-26T07:40:11.901Z,81.1
2022-09-26T07:45:47.940Z,79.1
2022-09-26T07:51:25.430Z,78.6
2022-09-26T07:57:02.998Z,78.5
2022-09-26T08:02:38.661Z,77.7
2022-09-26T08:08:14.599Z,77.7
2022-09-26T08:13:49.820Z,76.5
2022-09-26T08:19:25.052Z,75.2
2022-09-26T08:25:00.083Z,75.4
2022-09-26T08:30:36.194Z,73.7
2022-09-26T08:36:11.207Z,73.4
2022-09-26T08:41:46.217Z,73
2022-09-26T08:47:21.336Z,70.3
2022-09-26T08:52:56.582Z,68
2022-09-26T08:58:34.138Z,68.8
2022-09-26T09:04:11.519Z,67.3
2022-09-26T09:09:47.585Z,67.2
2022-09-26T09:15:26.682Z,67.2
2022-09-26T09:21:03.152Z,68.3
2022-09-26T09:33:46.668Z,66.4
2022-09-26T09:39:21.759Z,65.9
2022-09-26T09:44:57.227Z,63.6
2022-09-26T09:50:35.518Z,63.4
2022-09-26T09:56:13.334Z,63.3
2022-09-26T10:01:49.380Z,63.6
2022-09-26T10:07:24.120Z,62.5
2022-09-26T10:13:00.020Z,62.8
2022-09-26T10:18:35.222Z,61.4
2022-09-26T10:24:10.280Z,63.1
2022-09-26T10:29:45.237Z,62
2022-09-26T10:35:21.156Z,59.3
2022-09-26T10:40:56.420Z,56.7
2022-09-26T10:46:34.461Z,53.5
2022-09-26T10:52:21.668Z,56.3
2022-09-26T10:57:57.550Z,56.7
2022-09-26T11:03:36.818Z,57.1
2022-09-26T11:09:12.790Z,55.1
2022-09-26T11:14:47.742Z,55.5
2022-09-26T11:20:22.693Z,56.7
2022-09-26T11:26:03.211Z,57.9
2022-09-26T11:31:38.806Z,52.6
2022-09-26T11:37:15.014Z,51.1
2022-09-26T11:42:52.163Z,52.3
2022-09-26T11:48:27.494Z,53
2022-09-26T11:54:02.900Z,52
2022-09-26T11:59:37.901Z,52.7
2022-09-26T12:05:17.391Z,53.7
2022-09-26T12:10:52.494Z,52
2022-09-26T12:16:27.784Z,50.8
2022-09-26T12:22:05.002Z,46.4
2022-09-26T12:27:40.083Z,48.9
2022-09-26T12:33:15.550Z,46.8
2022-09-26T12:38:56.910Z,46.1
2022-09-26T12:44:32.303Z,43
2022-09-26T12:50:07.232Z,41.7
2022-09-26T12:55:42.314Z,43.3
2022-09-26T13:01:17.912Z,40.6
2022-09-26T13:07:19.614Z,37.5
2022-09-26T13:12:56.096Z,40.8
2022-09-26T13:18:35.739Z,39.6
2022-09-26T13:24:11.332Z,40
2022-09-26T13:29:47.257Z,35.6
2022-09-26T13:35:22.249Z,35.6
2022-09-26T13:40:58.076Z,33.6
2022-09-26T13:46:35.452Z,33.2
2022-09-26T13:52:11.404Z,28.3
2022-09-26T13:57:46.417Z,35.6
2022-09-26T14:03:22.226Z,37.3
2022-09-26T14:08:59.340Z,44.3
2022-09-26T14:14:34.626Z,46.4
2022-09-26T14:20:09.694Z,47
2022-09-26T14:25:44.612Z,48
2022-09-26T14:34:27.849Z,50.3
2022-09-26T14:40:06.436Z,50.3
2022-09-26T14:45:41.336Z,52
2022-09-26T14:51:16.415Z,50.1
2022-09-26T14:56:51.622Z,39.4
2022-09-26T15:02:27.310Z,38.5
2022-09-26T15:08:03.964Z,45.8
2022-09-26T15:13:39.039Z,46.7
2022-09-26T15:19:13.899Z,46.8
2022-09-26T15:24:49.048Z,47.4
2022-09-26T15:30:25.247Z,45.2
2022-09-26T15:36:00.592Z,47.8
2022-09-26T15:41:35.541Z,50.3
2022-09-26T15:47:11.687Z,50.1
2022-09-26T15:52:46.773Z,50.1
2022-09-26T15:58:21.935Z,49.5
2022-09-26T16:03:56.805Z,51.4
2022-09-26T16:09:33.089Z,52.7
2022-09-26T16:15:08.103Z,51.5
2022-09-26T16:20:43.107Z,52.2
2022-09-26T16:26:18.300Z,54
2022-09-26T16:31:53.753Z,55
2022-09-26T16:37:28.666Z,53.6
2022-09-26T16:43:03.495Z,56
2022-09-26T16:48:38.123Z,57.2
2022-09-26T16:54:14.533Z,58.9
2022-09-26T16:59:50.461Z,61.9
2022-09-26T17:05:25.334Z,61.8
2022-09-26T17:11:00.001Z,63.7
2022-09-26T17:16:34.720Z,64.4
2022-09-26T17:22:09.654Z,67.3
2022-09-26T17:27:44.455Z,69.1
2022-09-26T17:33:21.088Z,71.3
2022-09-26T17:38:57.027Z,69.6
2022-09-26T17:44:34.202Z,70.5
2022-09-26T17:50:13.707Z,71
2022-09-26T17:55:50.789Z,70.3
2022-09-26T18:01:27.511Z,70.4
2022-09-26T18:07:03.237Z,71.4
2022-09-26T18:12:38.342Z,70.2
2022-09-26T18:18:14.400Z,71.7
2022-09-26T18:23:49.148Z,70.7
2022-09-26T18:29:24.283Z,71.3
2022-09-26T18:34:59.382Z,72.5
2022-09-26T18:40:34.866Z,72.7
2022-09-26T18:46:21.428Z,74.1
2022-09-26T18:51:57.774Z,74.1
2022-09-26T18:57:33.405Z,75.3
2022-09-26T19:03:08.195Z,75.1
2022-09-26T19:08:43.072Z,75.6
2022-09-26T19:14:17.978Z,76.9
2022-09-26T19:19:52.903Z,73.9
2022-09-26T19:25:27.856Z,72.4
2022-09-26T19:31:03.332Z,71.8
2022-09-26T19:36:39.234Z,71.4
2022-09-26T19:42:14.359Z,71.1
2022-09-26T19:47:49.215Z,70.8
2022-09-26T19:53:26.808Z,70.5
2022-09-26T19:59:03.038Z,70.1
2022-09-26T20:04:38.103Z,70
2022-09-26T20:10:12.951Z,69.7
2022-09-26T20:15:47.781Z,69.6
2022-09-26T20:21:23.930Z,69.1
2022-09-26T20:26:59.658Z,69
2022-09-26T20:32:35.555Z,69.1
2022-09-26T20:38:10.546Z,69.3
2022-09-26T20:43:45.391Z,69.6
2022-09-26T20:49:19.960Z,69.7
2022-09-26T20:54:55.492Z,70
2022-09-26T21:00:30.283Z,70
2022-09-26T21:06:05.154Z,70.1
2022-09-26T21:11:40.076Z,70.2
2022-09-26T21:17:16.288Z,70.4
2022-09-26T21:22:51.544Z,70.5
2022-09-26T21:28:27.145Z,70.4
2022-09-26T21:34:02.336Z,70.3
2022-09-26T21:39:37.419Z,70.1
2022-09-26T21:45:16.928Z,70.1
2022-09-26T21:50:58.528Z,69.9
2022-09-26T21:56:33.545Z,69.6
2022-09-26T22:02:08.532Z,69.7
2022-09-26T22:07:44.295Z,69.7
2022-09-26T22:13:19.640Z,69.4
2022-09-26T22:19:06.227Z,68.7
2022-09-26T22:24:41.324Z,68.4
2022-09-26T22:30:16.333Z,68.1
2022-09-26T22:35:51.422Z,67.9
2022-09-26T22:41:26.456Z,68.3
2022-09-26T22:47:01.280Z,68.4
2022-09-26T22:52:36.206Z,68.5
2022-09-26T22:58:11.187Z,68.4
2022-09-26T23:03:50.108Z,68.2
2022-09-26T23:09:25.435Z,68.2
2022-09-26T23:15:00.177Z,68
2022-09-26T23:20:35.049Z,67.8
2022-09-26T23:26:09.971Z,67.9
2022-09-26T23:31:44.959Z,67.3
2022-09-26T23:37:19.716Z,67.2
2022-09-26T23:42:55.063Z,67
2022-09-26T23:48:30.067Z,66.7
2022-09-26T23:54:04.853Z,66.5
2022-09-26T23:59:39.625Z,66.5
